sensor_id;sensor_type;location;lat;lon;timestamp;pressure;altitude;pressure_sealevel;temperature;humidity
9676;BME280;4876;42.656;23.292;2023-07-08T00:00:14;94682.09;;;19.09;86.51
9676;BME280;4876;42.656;23.292;2023-07-08T00:02:42;94680.53;;;19.08;86.71
9676;BME280;4876;42.656;23.292;2023-07-08T00:05:10;94674.59;;;19.19;86.61
9676;BME280;4876;42.656;23.292;2023-07-08T00:07:38;94668.88;;;19.17;85.97
9676;BME280;4876;42.656;23.292;2023-07-08T00:10:15;94668.50;;;19.18;86.23
9676;BME280;4876;42.656;23.292;2023-07-08T00:12:43;94650.78;;;19.29;85.42
9676;BME280;4876;42.656;23.292;2023-07-08T00:15:10;94651.09;;;19.24;85.04
9676;BME280;4876;42.656;23.292;2023-07-08T00:17:48;94617.91;;;18.99;85.68
9676;BME280;4876;42.656;23.292;2023-07-08T00:20:38;94643.75;;;19.18;86.24
9676;BME280;4876;42.656;23.292;2023-07-08T00:23:05;94644.34;;;19.07;86.00
9676;BME280;4876;42.656;23.292;2023-07-08T00:25:34;94640.94;;;19.07;86.42
9676;BME280;4876;42.656;23.292;2023-07-08T00:28:01;94646.00;;;18.93;87.47
9676;BME280;4876;42.656;23.292;2023-07-08T00:30:29;94649.44;;;19.16;86.44
9676;BME280;4876;42.656;23.292;2023-07-08T00:32:57;94647.03;;;19.07;86.35
9676;BME280;4876;42.656;23.292;2023-07-08T00:35:29;94640.66;;;18.93;87.42
9676;BME280;4876;42.656;23.292;2023-07-08T00:37:58;94639.84;;;18.89;87.44
9676;BME280;4876;42.656;23.292;2023-07-08T00:40:28;94643.03;;;18.98;86.49
9676;BME280;4876;42.656;23.292;2023-07-08T00:42:58;94651.31;;;18.93;87.32
9676;BME280;4876;42.656;23.292;2023-07-08T00:45:37;94644.53;;;18.95;86.82
9676;BME280;4876;42.656;23.292;2023-07-08T00:48:18;94638.06;;;18.96;87.03
9676;BME280;4876;42.656;23.292;2023-07-08T00:50:46;94630.59;;;18.82;87.75
9676;BME280;4876;42.656;23.292;2023-07-08T00:53:23;94624.97;;;18.88;87.66
9676;BME280;4876;42.656;23.292;2023-07-08T00:55:51;94624.97;;;18.88;88.11
9676;BME280;4876;42.656;23.292;2023-07-08T00:58:22;94619.28;;;18.89;88.06
9676;BME280;4876;42.656;23.292;2023-07-08T01:00:51;94623.25;;;18.76;88.33
9676;BME280;4876;42.656;23.292;2023-07-08T01:03:23;94607.97;;;18.73;89.19
9676;BME280;4876;42.656;23.292;2023-07-08T01:05:53;94606.78;;;18.70;89.29
9676;BME280;4876;42.656;23.292;2023-07-08T01:08:26;94609.63;;;18.62;89.94
9676;BME280;4876;42.656;23.292;2023-07-08T01:10:57;94601.72;;;18.65;89.55
9676;BME280;4876;42.656;23.292;2023-07-08T01:13:36;94601.25;;;18.60;90.02
9676;BME280;4876;42.656;23.292;2023-07-08T01:16:04;94605.84;;;18.63;90.12
9676;BME280;4876;42.656;23.292;2023-07-08T01:18:32;94604.81;;;18.67;89.82
9676;BME280;4876;42.656;23.292;2023-07-08T01:21:04;94603.78;;;18.52;90.28
9676;BME280;4876;42.656;23.292;2023-07-08T01:23:34;94601.88;;;18.53;90.73
9676;BME280;4876;42.656;23.292;2023-07-08T01:26:01;94602.66;;;18.53;90.40
9676;BME280;4876;42.656;23.292;2023-07-08T01:28:29;94603.69;;;18.49;90.47
9676;BME280;4876;42.656;23.292;2023-07-08T01:30:57;94587.31;;;18.47;90.62
9676;BME280;4876;42.656;23.292;2023-07-08T01:33:24;94597.88;;;18.43;90.20
9676;BME280;4876;42.656;23.292;2023-07-08T01:35:51;94595.91;;;18.60;89.62
9676;BME280;4876;42.656;23.292;2023-07-08T01:38:22;94602.72;;;18.57;89.29
9676;BME280;4876;42.656;23.292;2023-07-08T01:40:53;94601.03;;;18.49;89.55
9676;BME280;4876;42.656;23.292;2023-07-08T01:43:20;94591.09;;;18.46;89.80
9676;BME280;4876;42.656;23.292;2023-07-08T01:45:48;94597.25;;;18.50;89.72
9676;BME280;4876;42.656;23.292;2023-07-08T01:48:18;94580.91;;;18.28;90.39
9676;BME280;4876;42.656;23.292;2023-07-08T01:50:47;94583.41;;;18.41;89.94
9676;BME280;4876;42.656;23.292;2023-07-08T01:53:18;94558.69;;;18.21;90.74
9676;BME280;4876;42.656;23.292;2023-07-08T01:55:46;94585.66;;;18.39;90.41
9676;BME280;4876;42.656;23.292;2023-07-08T01:58:14;94581.03;;;18.36;90.32
9676;BME280;4876;42.656;23.292;2023-07-08T02:00:40;94564.31;;;18.16;91.19
9676;BME280;4876;42.656;23.292;2023-07-08T02:03:08;94584.44;;;18.36;90.85
9676;BME280;4876;42.656;23.292;2023-07-08T02:05:36;94584.09;;;18.38;90.78
9676;BME280;4876;42.656;23.292;2023-07-08T02:08:03;94580.25;;;18.35;90.83
9676;BME280;4876;42.656;23.292;2023-07-08T02:10:29;94592.44;;;18.36;90.85
9676;BME280;4876;42.656;23.292;2023-07-08T02:12:56;94591.53;;;18.28;90.87
9676;BME280;4876;42.656;23.292;2023-07-08T02:15:25;94600.22;;;18.25;91.07
9676;BME280;4876;42.656;23.292;2023-07-08T02:17:52;94602.88;;;18.25;91.48
9676;BME280;4876;42.656;23.292;2023-07-08T02:20:18;94603.38;;;18.31;90.90
9676;BME280;4876;42.656;23.292;2023-07-08T02:22:45;94609.06;;;18.29;90.78
9676;BME280;4876;42.656;23.292;2023-07-08T02:25:12;94608.00;;;18.34;90.64
9676;BME280;4876;42.656;23.292;2023-07-08T02:27:39;94612.97;;;18.36;90.36
9676;BME280;4876;42.656;23.292;2023-07-08T02:30:06;94610.19;;;18.28;90.96
9676;BME280;4876;42.656;23.292;2023-07-08T02:32:36;94619.56;;;18.22;91.27
9676;BME280;4876;42.656;23.292;2023-07-08T02:35:04;94610.19;;;18.28;91.20
9676;BME280;4876;42.656;23.292;2023-07-08T02:37:31;94612.28;;;18.39;89.39
9676;BME280;4876;42.656;23.292;2023-07-08T02:39:58;94619.69;;;18.29;89.64
9676;BME280;4876;42.656;23.292;2023-07-08T02:42:25;94626.03;;;18.21;89.94
9676;BME280;4876;42.656;23.292;2023-07-08T02:44:52;94624.00;;;18.15;90.41
9676;BME280;4876;42.656;23.292;2023-07-08T02:47:19;94629.50;;;18.25;90.11
9676;BME280;4876;42.656;23.292;2023-07-08T02:49:47;94632.59;;;18.27;89.60
9676;BME280;4876;42.656;23.292;2023-07-08T02:52:14;94641.13;;;18.37;88.91
9676;BME280;4876;42.656;23.292;2023-07-08T02:54:40;94627.69;;;18.29;89.40
9676;BME280;4876;42.656;23.292;2023-07-08T02:57:07;94646.09;;;18.38;89.32
9676;BME280;4876;42.656;23.292;2023-07-08T02:59:34;94643.44;;;18.38;89.53
9676;BME280;4876;42.656;23.292;2023-07-08T03:02:01;94653.28;;;18.34;89.64
9676;BME280;4876;42.656;23.292;2023-07-08T03:04:28;94643.25;;;18.27;90.07
9676;BME280;4876;42.656;23.292;2023-07-08T03:06:56;94641.84;;;18.34;89.98
9676;BME280;4876;42.656;23.292;2023-07-08T03:09:24;94649.47;;;18.35;89.21
9676;BME280;4876;42.656;23.292;2023-07-08T03:11:52;94645.78;;;18.40;88.96
9676;BME280;4876;42.656;23.292;2023-07-08T03:14:18;94635.69;;;18.29;89.56
9676;BME280;4876;42.656;23.292;2023-07-08T03:16:45;94635.03;;;18.36;89.55
9676;BME280;4876;42.656;23.292;2023-07-08T03:19:14;94638.75;;;18.51;88.61
9676;BME280;4876;42.656;23.292;2023-07-08T03:22:02;94636.75;;;18.87;86.50
9676;BME280;4876;42.656;23.292;2023-07-08T03:24:33;94636.47;;;19.15;85.07
9676;BME280;4876;42.656;23.292;2023-07-08T03:27:03;94639.22;;;19.45;82.98
9676;BME280;4876;42.656;23.292;2023-07-08T03:29:33;94612.59;;;19.75;80.73
9676;BME280;4876;42.656;23.292;2023-07-08T03:31:59;94628.16;;;20.29;77.98
9676;BME280;4876;42.656;23.292;2023-07-08T03:34:26;94634.38;;;20.70;75.58
9676;BME280;4876;42.656;23.292;2023-07-08T03:36:53;94635.72;;;20.87;74.87
9676;BME280;4876;42.656;23.292;2023-07-08T03:39:23;94640.59;;;21.22;73.45
9676;BME280;4876;42.656;23.292;2023-07-08T03:41:51;94627.06;;;21.49;71.01
9676;BME280;4876;42.656;23.292;2023-07-08T03:44:19;94622.63;;;21.71;70.55
9676;BME280;4876;42.656;23.292;2023-07-08T03:46:47;94625.84;;;22.01;69.48
9676;BME280;4876;42.656;23.292;2023-07-08T03:49:15;94636.72;;;22.30;68.61
9676;BME280;4876;42.656;23.292;2023-07-08T03:51:44;94628.38;;;22.49;66.42
9676;BME280;4876;42.656;23.292;2023-07-08T03:54:13;94631.47;;;22.62;66.74
9676;BME280;4876;42.656;23.292;2023-07-08T03:56:42;94631.53;;;22.80;65.32
9676;BME280;4876;42.656;23.292;2023-07-08T03:59:08;94574.81;;;22.67;64.83
9676;BME280;4876;42.656;23.292;2023-07-08T04:01:35;94619.63;;;22.84;64.88
9676;BME280;4876;42.656;23.292;2023-07-08T04:04:08;94625.84;;;23.17;63.79
9676;BME280;4876;42.656;23.292;2023-07-08T04:06:35;94628.13;;;23.47;63.45
9676;BME280;4876;42.656;23.292;2023-07-08T04:09:01;94633.50;;;23.47;63.53
9676;BME280;4876;42.656;23.292;2023-07-08T04:11:29;94628.06;;;23.97;61.83
9676;BME280;4876;42.656;23.292;2023-07-08T04:13:57;94630.38;;;23.95;61.25
9676;BME280;4876;42.656;23.292;2023-07-08T04:16:26;94602.66;;;24.20;59.97
9676;BME280;4876;42.656;23.292;2023-07-08T04:18:54;94630.19;;;24.52;59.60
9676;BME280;4876;42.656;23.292;2023-07-08T04:21:22;94632.25;;;24.09;61.38
9676;BME280;4876;42.656;23.292;2023-07-08T04:23:50;94633.88;;;23.60;62.06
9676;BME280;4876;42.656;23.292;2023-07-08T04:26:17;94629.22;;;24.00;61.36
9676;BME280;4876;42.656;23.292;2023-07-08T04:28:45;94633.75;;;24.24;61.43
9676;BME280;4876;42.656;23.292;2023-07-08T04:31:14;94639.09;;;24.38;60.81
9676;BME280;4876;42.656;23.292;2023-07-08T04:33:41;94639.22;;;23.85;62.08
9676;BME280;4876;42.656;23.292;2023-07-08T04:36:12;94643.06;;;23.59;62.63
9676;BME280;4876;42.656;23.292;2023-07-08T04:38:40;94654.97;;;23.40;63.82
9676;BME280;4876;42.656;23.292;2023-07-08T04:41:11;94654.78;;;22.54;65.94
9676;BME280;4876;42.656;23.292;2023-07-08T04:43:38;94659.44;;;22.65;66.30
9676;BME280;4876;42.656;23.292;2023-07-08T04:46:17;94644.78;;;22.37;67.27
9676;BME280;4876;42.656;23.292;2023-07-08T04:48:45;94651.03;;;22.77;66.16
9676;BME280;4876;42.656;23.292;2023-07-08T04:51:13;94649.97;;;23.21;64.41
9676;BME280;4876;42.656;23.292;2023-07-08T04:53:40;94645.41;;;23.50;63.49
9676;BME280;4876;42.656;23.292;2023-07-08T04:56:07;94641.91;;;23.85;62.15
9676;BME280;4876;42.656;23.292;2023-07-08T04:58:34;94643.41;;;24.11;61.05
9676;BME280;4876;42.656;23.292;2023-07-08T05:01:01;94654.84;;;24.40;61.06
9676;BME280;4876;42.656;23.292;2023-07-08T05:03:29;94658.75;;;24.14;61.71
9676;BME280;4876;42.656;23.292;2023-07-08T05:05:56;94662.84;;;24.61;59.71
9676;BME280;4876;42.656;23.292;2023-07-08T05:08:23;94664.47;;;24.16;61.31
9676;BME280;4876;42.656;23.292;2023-07-08T05:10:49;94672.97;;;24.11;60.85
9676;BME280;4876;42.656;23.292;2023-07-08T05:13:16;94673.78;;;23.65;62.98
9676;BME280;4876;42.656;23.292;2023-07-08T05:15:43;94659.59;;;23.50;63.50
9676;BME280;4876;42.656;23.292;2023-07-08T05:18:10;94670.31;;;23.72;62.79
9676;BME280;4876;42.656;23.292;2023-07-08T05:20:38;94675.31;;;23.77;62.19
9676;BME280;4876;42.656;23.292;2023-07-08T05:23:05;94667.59;;;24.00;62.35
9676;BME280;4876;42.656;23.292;2023-07-08T05:25:32;94680.59;;;24.41;61.45
9676;BME280;4876;42.656;23.292;2023-07-08T05:27:59;94668.31;;;24.29;60.56
9676;BME280;4876;42.656;23.292;2023-07-08T05:30:26;94682.25;;;23.63;61.40
9676;BME280;4876;42.656;23.292;2023-07-08T05:32:53;94685.66;;;23.32;63.24
9676;BME280;4876;42.656;23.292;2023-07-08T05:35:20;94675.25;;;23.02;63.60
9676;BME280;4876;42.656;23.292;2023-07-08T05:37:49;94685.75;;;22.41;65.43
9676;BME280;4876;42.656;23.292;2023-07-08T05:40:16;94682.44;;;22.69;64.75
9676;BME280;4876;42.656;23.292;2023-07-08T05:42:43;94682.78;;;22.61;65.66
9676;BME280;4876;42.656;23.292;2023-07-08T05:45:09;94683.91;;;22.52;66.74
9676;BME280;4876;42.656;23.292;2023-07-08T05:47:37;94687.78;;;22.73;65.72
9676;BME280;4876;42.656;23.292;2023-07-08T05:50:04;94684.50;;;23.19;64.42
9676;BME280;4876;42.656;23.292;2023-07-08T05:52:31;94689.50;;;23.24;64.69
9676;BME280;4876;42.656;23.292;2023-07-08T05:54:59;94693.72;;;23.57;64.37
9676;BME280;4876;42.656;23.292;2023-07-08T05:57:26;94701.03;;;23.74;62.72
9676;BME280;4876;42.656;23.292;2023-07-08T05:59:53;94704.44;;;23.28;64.01
9676;BME280;4876;42.656;23.292;2023-07-08T06:02:20;94699.06;;;23.10;63.80
9676;BME280;4876;42.656;23.292;2023-07-08T06:04:48;94674.06;;;22.01;66.19
9676;BME280;4876;42.656;23.292;2023-07-08T06:07:15;94697.53;;;22.19;66.68
9676;BME280;4876;42.656;23.292;2023-07-08T06:09:43;94703.88;;;21.96;67.15
9676;BME280;4876;42.656;23.292;2023-07-08T06:12:11;94699.81;;;21.65;68.96
9676;BME280;4876;42.656;23.292;2023-07-08T06:14:38;94705.16;;;21.62;69.13
9676;BME280;4876;42.656;23.292;2023-07-08T06:17:05;94708.03;;;21.42;70.30
9676;BME280;4876;42.656;23.292;2023-07-08T06:19:32;94708.91;;;21.54;69.78
9676;BME280;4876;42.656;23.292;2023-07-08T06:21:59;94716.69;;;21.69;69.79
9676;BME280;4876;42.656;23.292;2023-07-08T06:24:26;94713.59;;;21.64;67.88
9676;BME280;4876;42.656;23.292;2023-07-08T06:26:53;94713.63;;;21.71;68.46
9676;BME280;4876;42.656;23.292;2023-07-08T06:29:21;94704.97;;;21.40;69.73
9676;BME280;4876;42.656;23.292;2023-07-08T06:31:48;94712.00;;;21.59;69.05
9676;BME280;4876;42.656;23.292;2023-07-08T06:34:15;94711.91;;;21.48;68.88
9676;BME280;4876;42.656;23.292;2023-07-08T06:36:41;94716.38;;;21.34;69.27
9676;BME280;4876;42.656;23.292;2023-07-08T06:39:08;94710.19;;;21.26;68.32
9676;BME280;4876;42.656;23.292;2023-07-08T06:41:37;94707.66;;;21.40;68.34
9676;BME280;4876;42.656;23.292;2023-07-08T06:44:04;94703.53;;;21.50;67.41
9676;BME280;4876;42.656;23.292;2023-07-08T06:46:32;94704.53;;;21.35;68.55
9676;BME280;4876;42.656;23.292;2023-07-08T06:48:59;94702.09;;;21.19;68.20
9676;BME280;4876;42.656;23.292;2023-07-08T06:51:26;94698.00;;;21.29;67.18
9676;BME280;4876;42.656;23.292;2023-07-08T06:53:53;94705.78;;;21.44;67.11
9676;BME280;4876;42.656;23.292;2023-07-08T06:56:20;94713.59;;;21.64;66.11
9676;BME280;4876;42.656;23.292;2023-07-08T06:58:47;94719.75;;;21.68;66.17
9676;BME280;4876;42.656;23.292;2023-07-08T07:01:14;94717.06;;;21.68;65.50
9676;BME280;4876;42.656;23.292;2023-07-08T07:03:43;94702.88;;;21.67;65.13
9676;BME280;4876;42.656;23.292;2023-07-08T07:06:12;94718.31;;;21.81;65.39
9676;BME280;4876;42.656;23.292;2023-07-08T07:08:39;94718.84;;;21.53;67.72
9676;BME280;4876;42.656;23.292;2023-07-08T07:11:06;94727.50;;;21.80;66.76
9676;BME280;4876;42.656;23.292;2023-07-08T07:13:33;94723.00;;;21.98;66.54
9676;BME280;4876;42.656;23.292;2023-07-08T07:15:59;94723.59;;;22.29;65.92
9676;BME280;4876;42.656;23.292;2023-07-08T07:18:26;94720.94;;;22.33;64.07
9676;BME280;4876;42.656;23.292;2023-07-08T07:20:55;94723.59;;;22.25;63.47
9676;BME280;4876;42.656;23.292;2023-07-08T07:23:22;94739.97;;;22.13;64.43
9676;BME280;4876;42.656;23.292;2023-07-08T07:25:48;94738.16;;;22.28;62.37
9676;BME280;4876;42.656;23.292;2023-07-08T07:28:15;94745.16;;;21.92;64.41
9676;BME280;4876;42.656;23.292;2023-07-08T07:30:42;94749.00;;;21.94;65.23
9676;BME280;4876;42.656;23.292;2023-07-08T07:33:10;94757.38;;;21.89;66.46
9676;BME280;4876;42.656;23.292;2023-07-08T07:35:42;94755.44;;;21.86;67.12
9676;BME280;4876;42.656;23.292;2023-07-08T07:38:10;94758.25;;;22.00;66.11
9676;BME280;4876;42.656;23.292;2023-07-08T07:40:39;94768.47;;;21.91;66.77
9676;BME280;4876;42.656;23.292;2023-07-08T07:43:06;94752.31;;;22.25;65.25
9676;BME280;4876;42.656;23.292;2023-07-08T07:45:33;94752.81;;;22.48;64.62
9676;BME280;4876;42.656;23.292;2023-07-08T07:48:00;94754.03;;;22.65;61.95
9676;BME280;4876;42.656;23.292;2023-07-08T07:50:27;94751.16;;;23.09;61.72
9676;BME280;4876;42.656;23.292;2023-07-08T07:52:54;94756.59;;;23.31;59.70
9676;BME280;4876;42.656;23.292;2023-07-08T07:55:22;94750.88;;;23.43;61.06
9676;BME280;4876;42.656;23.292;2023-07-08T07:57:49;94750.47;;;23.30;60.55
9676;BME280;4876;42.656;23.292;2023-07-08T08:00:16;94750.06;;;23.25;61.35
9676;BME280;4876;42.656;23.292;2023-07-08T08:02:43;94748.94;;;23.40;61.66
9676;BME280;4876;42.656;23.292;2023-07-08T08:05:10;94757.06;;;23.61;60.95
9676;BME280;4876;42.656;23.292;2023-07-08T08:07:37;94752.84;;;23.82;58.48
9676;BME280;4876;42.656;23.292;2023-07-08T08:10:04;94752.06;;;23.88;57.47
9676;BME280;4876;42.656;23.292;2023-07-08T08:12:33;94753.97;;;24.16;56.83
9676;BME280;4876;42.656;23.292;2023-07-08T08:14:59;94748.19;;;24.14;57.84
9676;BME280;4876;42.656;23.292;2023-07-08T08:17:26;94755.09;;;24.30;58.24
9676;BME280;4876;42.656;23.292;2023-07-08T08:19:53;94747.81;;;24.09;56.31
9676;BME280;4876;42.656;23.292;2023-07-08T08:22:20;94754.72;;;24.24;55.88
9676;BME280;4876;42.656;23.292;2023-07-08T08:24:47;94753.22;;;23.98;57.72
9676;BME280;4876;42.656;23.292;2023-07-08T08:27:14;94756.63;;;23.59;58.47
9676;BME280;4876;42.656;23.292;2023-07-08T08:29:42;94746.69;;;23.71;58.49
9676;BME280;4876;42.656;23.292;2023-07-08T08:32:09;94752.38;;;23.41;59.43
9676;BME280;4876;42.656;23.292;2023-07-08T08:34:35;94752.03;;;23.56;58.65
9676;BME280;4876;42.656;23.292;2023-07-08T08:37:02;94761.25;;;23.66;59.64
9676;BME280;4876;42.656;23.292;2023-07-08T08:39:29;94757.38;;;23.53;58.84
9676;BME280;4876;42.656;23.292;2023-07-08T08:41:57;94752.06;;;23.71;59.31
9676;BME280;4876;42.656;23.292;2023-07-08T08:44:28;94748.63;;;23.92;59.95
9676;BME280;4876;42.656;23.292;2023-07-08T08:47:01;94741.66;;;23.58;59.53
9676;BME280;4876;42.656;23.292;2023-07-08T08:49:37;94727.78;;;22.99;61.12
9676;BME280;4876;42.656;23.292;2023-07-08T08:52:06;94731.66;;;23.20;61.68
9676;BME280;4876;42.656;23.292;2023-07-08T08:54:40;94737.03;;;23.27;61.66
9676;BME280;4876;42.656;23.292;2023-07-08T08:57:17;94743.16;;;23.24;61.30
9676;BME280;4876;42.656;23.292;2023-07-08T08:59:53;94742.06;;;23.60;59.12
9676;BME280;4876;42.656;23.292;2023-07-08T09:02:29;94751.31;;;23.81;60.75
9676;BME280;4876;42.656;23.292;2023-07-08T09:05:02;94742.03;;;24.25;58.95
9676;BME280;4876;42.656;23.292;2023-07-08T09:07:31;94746.69;;;23.85;57.24
9676;BME280;4876;42.656;23.292;2023-07-08T09:10:04;94749.00;;;23.76;58.40
9676;BME280;4876;42.656;23.292;2023-07-08T09:12:35;94738.22;;;23.90;59.15
9676;BME280;4876;42.656;23.292;2023-07-08T09:15:11;94745.56;;;23.86;59.46
9676;BME280;4876;42.656;23.292;2023-07-08T09:17:40;94736.69;;;24.07;59.14
9676;BME280;4876;42.656;23.292;2023-07-08T09:20:17;94741.28;;;24.35;58.64
9676;BME280;4876;42.656;23.292;2023-07-08T09:22:52;94729.78;;;24.02;59.00
9676;BME280;4876;42.656;23.292;2023-07-08T09:25:25;94730.13;;;23.47;59.71
9676;BME280;4876;42.656;23.292;2023-07-08T09:27:53;94728.22;;;23.58;59.32
9676;BME280;4876;42.656;23.292;2023-07-08T09:30:22;94731.34;;;23.75;57.62
9676;BME280;4876;42.656;23.292;2023-07-08T09:32:51;94727.47;;;23.54;58.05
9676;BME280;4876;42.656;23.292;2023-07-08T09:35:22;94726.69;;;23.36;58.31
9676;BME280;4876;42.656;23.292;2023-07-08T09:37:50;94714.47;;;23.74;57.27
9676;BME280;4876;42.656;23.292;2023-07-08T09:40:19;94718.28;;;23.77;58.04
9676;BME280;4876;42.656;23.292;2023-07-08T09:42:52;94712.91;;;23.95;56.83
9676;BME280;4876;42.656;23.292;2023-07-08T09:45:20;94710.22;;;23.95;57.59
9676;BME280;4876;42.656;23.292;2023-07-08T09:47:54;94707.91;;;23.57;59.27
9676;BME280;4876;42.656;23.292;2023-07-08T09:50:24;94709.06;;;23.46;59.07
9676;BME280;4876;42.656;23.292;2023-07-08T09:52:52;94699.84;;;23.47;58.92
9676;BME280;4876;42.656;23.292;2023-07-08T09:55:20;94652.28;;;23.01;59.04
9676;BME280;4876;42.656;23.292;2023-07-08T09:57:48;94697.91;;;23.40;60.28
9676;BME280;4876;42.656;23.292;2023-07-08T10:00:17;94662.25;;;23.22;57.91
9676;BME280;4876;42.656;23.292;2023-07-08T10:02:49;94701.41;;;23.62;58.88
9676;BME280;4876;42.656;23.292;2023-07-08T10:05:22;94698.72;;;23.87;57.00
9676;BME280;4876;42.656;23.292;2023-07-08T10:07:56;94646.16;;;23.57;59.28
9676;BME280;4876;42.656;23.292;2023-07-08T10:10:36;94695.25;;;23.97;58.58
9676;BME280;4876;42.656;23.292;2023-07-08T10:13:12;94704.47;;;24.00;57.85
9676;BME280;4876;42.656;23.292;2023-07-08T10:15:45;94685.25;;;24.08;56.93
9676;BME280;4876;42.656;23.292;2023-07-08T10:18:15;94681.41;;;24.02;56.62
9676;BME280;4876;42.656;23.292;2023-07-08T10:20:54;94685.66;;;24.10;56.02
9676;BME280;4876;42.656;23.292;2023-07-08T10:23:42;94692.91;;;24.17;56.61
9676;BME280;4876;42.656;23.292;2023-07-08T10:26:15;94677.50;;;24.32;56.10
9676;BME280;4876;42.656;23.292;2023-07-08T10:28:49;94673.63;;;24.54;55.51
9676;BME280;4876;42.656;23.292;2023-07-08T10:31:27;94675.41;;;24.82;55.25
9676;BME280;4876;42.656;23.292;2023-07-08T10:34:07;94668.25;;;24.54;54.74
9676;BME280;4876;42.656;23.292;2023-07-08T10:36:45;94672.91;;;24.43;55.15
9676;BME280;4876;42.656;23.292;2023-07-08T10:42:27;94678.81;;;24.90;55.07
9676;BME280;4876;42.656;23.292;2023-07-08T10:45:06;94672.72;;;24.82;54.86
9676;BME280;4876;42.656;23.292;2023-07-08T10:47:43;94658.78;;;25.05;53.62
9676;BME280;4876;42.656;23.292;2023-07-08T10:50:29;94665.22;;;25.18;52.28
9676;BME280;4876;42.656;23.292;2023-07-08T10:53:15;94658.56;;;25.34;51.98
9676;BME280;4876;42.656;23.292;2023-07-08T10:55:49;94656.25;;;25.36;52.23
9676;BME280;4876;42.656;23.292;2023-07-08T10:58:45;94658.84;;;25.46;52.32
9676;BME280;4876;42.656;23.292;2023-07-08T11:01:25;94654.75;;;25.28;52.91
9676;BME280;4876;42.656;23.292;2023-07-08T11:04:14;94652.69;;;25.46;52.14
9676;BME280;4876;42.656;23.292;2023-07-08T11:06:48;94657.53;;;25.69;52.98
9676;BME280;4876;42.656;23.292;2023-07-08T11:09:24;94660.00;;;25.94;50.83
9676;BME280;4876;42.656;23.292;2023-07-08T11:11:56;94646.09;;;25.99;50.34
9676;BME280;4876;42.656;23.292;2023-07-08T11:14:29;94660.69;;;25.60;51.27
9676;BME280;4876;42.656;23.292;2023-07-08T11:17:11;94653.44;;;25.50;50.46
9676;BME280;4876;42.656;23.292;2023-07-08T11:19:47;94640.94;;;25.26;50.94
9676;BME280;4876;42.656;23.292;2023-07-08T11:22:15;94645.97;;;25.72;50.23
9676;BME280;4876;42.656;23.292;2023-07-08T11:24:45;94648.06;;;25.95;50.58
9676;BME280;4876;42.656;23.292;2023-07-08T11:27:16;94635.63;;;25.63;50.33
9676;BME280;4876;42.656;23.292;2023-07-08T11:29:52;94633.13;;;25.42;50.84
9676;BME280;4876;42.656;23.292;2023-07-08T11:32:22;94633.91;;;25.39;52.14
9676;BME280;4876;42.656;23.292;2023-07-08T11:34:51;94639.22;;;25.46;52.32
9676;BME280;4876;42.656;23.292;2023-07-08T11:37:20;94633.91;;;25.39;51.88
9676;BME280;4876;42.656;23.292;2023-07-08T11:39:58;94624.19;;;25.52;50.80
9676;BME280;4876;42.656;23.292;2023-07-08T11:42:32;94634.78;;;25.29;50.82
9676;BME280;4876;42.656;23.292;2023-07-08T11:45:01;94634.09;;;25.17;52.27
9676;BME280;4876;42.656;23.292;2023-07-08T11:47:37;94638.84;;;25.47;49.97
9676;BME280;4876;42.656;23.292;2023-07-08T11:50:24;94641.09;;;25.56;50.52
9676;BME280;4876;42.656;23.292;2023-07-08T11:52:53;94633.63;;;25.74;49.53
9676;BME280;4876;42.656;23.292;2023-07-08T11:55:24;94636.25;;;25.82;50.28
9676;BME280;4876;42.656;23.292;2023-07-08T11:57:54;94630.94;;;26.12;49.83
9676;BME280;4876;42.656;23.292;2023-07-08T12:00:25;94653.16;;;25.86;50.18
9676;BME280;4876;42.656;23.292;2023-07-08T12:02:55;94640.34;;;25.97;49.64
9676;BME280;4876;42.656;23.292;2023-07-08T12:05:35;94642.94;;;25.63;50.49
9676;BME280;4876;42.656;23.292;2023-07-08T12:08:12;94655.38;;;25.53;49.40
9676;BME280;4876;42.656;23.292;2023-07-08T12:10:46;94641.91;;;24.94;50.20
9676;BME280;4876;42.656;23.292;2023-07-08T12:13:18;94632.50;;;25.23;50.22
9676;BME280;4876;42.656;23.292;2023-07-08T12:15:47;94639.78;;;25.27;50.45
9676;BME280;4876;42.656;23.292;2023-07-08T12:18:16;94630.97;;;25.22;51.93
9676;BME280;4876;42.656;23.292;2023-07-08T12:20:48;94642.69;;;25.50;50.00
9676;BME280;4876;42.656;23.292;2023-07-08T12:23:18;94620.38;;;25.46;49.55
9676;BME280;4876;42.656;23.292;2023-07-08T12:25:47;94639.81;;;25.68;48.49
9676;BME280;4876;42.656;23.292;2023-07-08T12:28:15;94642.41;;;25.34;49.49
9676;BME280;4876;42.656;23.292;2023-07-08T12:30:42;94635.63;;;25.18;49.60
9676;BME280;4876;42.656;23.292;2023-07-08T12:33:12;94642.56;;;25.12;50.11
9676;BME280;4876;42.656;23.292;2023-07-08T12:35:41;94635.63;;;25.18;50.70
9676;BME280;4876;42.656;23.292;2023-07-08T12:38:20;94624.03;;;25.21;50.35
9676;BME280;4876;42.656;23.292;2023-07-08T12:40:50;94631.75;;;25.19;50.29
9676;BME280;4876;42.656;23.292;2023-07-08T12:43:17;94621.47;;;25.00;51.35
9676;BME280;4876;42.656;23.292;2023-07-08T12:45:44;94630.72;;;24.99;50.58
9676;BME280;4876;42.656;23.292;2023-07-08T12:48:11;94609.00;;;24.65;51.25
9676;BME280;4876;42.656;23.292;2023-07-08T12:50:38;94623.66;;;24.60;51.90
9676;BME280;4876;42.656;23.292;2023-07-08T12:53:05;94625.91;;;24.65;51.90
9676;BME280;4876;42.656;23.292;2023-07-08T12:55:36;94625.63;;;24.49;52.48
9676;BME280;4876;42.656;23.292;2023-07-08T12:58:05;94618.94;;;24.75;51.99
9676;BME280;4876;42.656;23.292;2023-07-08T13:00:37;94623.75;;;25.12;51.59
9676;BME280;4876;42.656;23.292;2023-07-08T13:03:08;94621.75;;;25.20;53.02
9676;BME280;4876;42.656;23.292;2023-07-08T13:05:39;94631.44;;;25.59;51.28
9676;BME280;4876;42.656;23.292;2023-07-08T13:08:07;94630.66;;;25.58;50.62
9676;BME280;4876;42.656;23.292;2023-07-08T13:10:37;94642.13;;;25.69;50.77
9676;BME280;4876;42.656;23.292;2023-07-08T13:13:08;94638.25;;;25.70;50.51
9676;BME280;4876;42.656;23.292;2023-07-08T13:15:40;94625.69;;;25.57;50.63
9676;BME280;4876;42.656;23.292;2023-07-08T13:18:14;94635.69;;;25.60;50.20
9676;BME280;4876;42.656;23.292;2023-07-08T13:20:41;94617.25;;;25.55;50.45
9676;BME280;4876;42.656;23.292;2023-07-08T13:23:09;94634.19;;;25.96;50.21
9676;BME280;4876;42.656;23.292;2023-07-08T13:25:37;94625.94;;;25.69;48.76